createdAt,value
2022-12-12T00:00:25.387Z,45.16
2022-12-12T00:03:28.482Z,45.18
2022-12-12T00:06:31.757Z,45.22
2022-12-12T00:09:36.736Z,45.26
2022-12-12T00:12:39.751Z,45.36
2022-12-12T00:15:42.846Z,45.42
2022-12-12T00:18:46.220Z,45.51
2022-12-12T00:21:49.856Z,45.69
2022-12-12T00:24:54.274Z,45.77
2022-12-12T00:27:57.361Z,45.81
2022-12-12T00:31:00.507Z,45.84
2022-12-12T00:34:03.819Z,45.85
2022-12-12T00:37:06.746Z,45.83
2022-12-12T00:40:13.593Z,46.05
2022-12-12T00:43:16.839Z,46.02
2022-12-12T00:46:22.302Z,46.13
2022-12-12T00:49:25.368Z,46.13
2022-12-12T00:52:28.343Z,45.98
2022-12-12T00:55:32.755Z,46.01
2022-12-12T00:58:36.181Z,46.13
2022-12-12T01:01:39.297Z,46.27
2022-12-12T01:04:42.303Z,46.28
2022-12-12T01:07:45.317Z,46.24
2022-12-12T01:10:49.678Z,46.08
2022-12-12T01:13:54.450Z,46.20
2022-12-12T01:16:57.494Z,45.97
2022-12-12T01:20:00.420Z,46.02
2022-12-12T01:23:03.434Z,46.19
2022-12-12T01:26:10.049Z,46.21
2022-12-12T01:29:13.015Z,46.03
2022-12-12T01:32:15.967Z,46.09
2022-12-12T01:35:19.266Z,46.19
2022-12-12T01:38:22.588Z,46.37
2022-12-12T01:41:27.014Z,46.29
2022-12-12T01:44:43.406Z,46.38
2022-12-12T01:47:47.778Z,46.34
2022-12-12T01:50:51.929Z,46.20
2022-12-12T01:54:01.149Z,46.18
2022-12-12T01:57:09.649Z,46.16
2022-12-12T02:00:13.229Z,46.34
2022-12-12T02:03:20.221Z,46.32
2022-12-12T02:06:27.707Z,46.28
2022-12-12T02:09:31.058Z,46.29
2022-12-12T02:12:35.682Z,46.32
2022-12-12T02:15:43.738Z,46.46
2022-12-12T02:18:55.990Z,46.39
2022-12-12T02:22:04.230Z,46.52
2022-12-12T02:25:29.398Z,46.59
2022-12-12T02:28:59.739Z,46.39
2022-12-12T02:32:09.762Z,46.41
2022-12-12T02:35:20.201Z,46.49
2022-12-12T02:38:29.229Z,46.58
2022-12-12T02:41:39.090Z,46.47
2022-12-12T02:44:50.075Z,46.48
2022-12-12T02:48:00.030Z,46.39
2022-12-12T02:51:07.758Z,46.36
2022-12-12T02:54:16.064Z,46.66
2022-12-12T02:57:20.522Z,46.71
2022-12-12T03:00:23.636Z,46.65
2022-12-12T03:03:57.333Z,46.67
2022-12-12T03:07:26.578Z,46.64
2022-12-12T03:10:46.186Z,46.56
2022-12-12T03:13:57.490Z,46.64
2022-12-12T03:17:06.682Z,46.52
2022-12-12T03:20:17.393Z,46.65
2022-12-12T03:23:25.898Z,46.56
2022-12-12T03:26:33.207Z,46.54
2022-12-12T03:29:41.811Z,46.60
2022-12-12T03:32:52.049Z,46.68
2022-12-12T03:36:01.003Z,46.81
2022-12-12T03:39:10.063Z,46.83
2022-12-12T03:42:20.080Z,46.68
2022-12-12T03:45:28.649Z,46.74
2022-12-12T03:48:34.041Z,46.73
2022-12-12T03:51:44.911Z,46.77
2022-12-12T03:54:52.988Z,46.65
2022-12-12T03:58:00.545Z,46.71
2022-12-12T04:01:07.853Z,46.77
2022-12-12T04:04:16.392Z,46.65
2022-12-12T04:07:26.330Z,46.60
2022-12-12T04:10:51.021Z,46.81
2022-12-12T04:14:05.575Z,46.66
2022-12-12T04:17:12.451Z,46.65
2022-12-12T04:20:43.046Z,46.61
2022-12-12T04:24:00.573Z,46.70
2022-12-12T04:27:09.798Z,46.80
2022-12-12T04:30:15.223Z,46.72
2022-12-12T04:33:22.115Z,46.69
2022-12-12T04:36:26.673Z,46.63
2022-12-12T04:39:32.774Z,46.57
2022-12-12T04:42:39.888Z,46.71
2022-12-12T04:45:47.215Z,46.79
2022-12-12T04:48:54.990Z,46.87
2022-12-12T04:52:03.954Z,46.82
2022-12-12T04:55:14.032Z,46.92
2022-12-12T04:58:17.666Z,47.00
2022-12-12T05:01:27.651Z,46.85
2022-12-12T05:04:35.130Z,46.83
2022-12-12T05:07:41.026Z,46.83
2022-12-12T05:10:47.516Z,47.03
2022-12-12T05:13:51.425Z,46.91
2022-12-12T05:17:00.019Z,47.07
2022-12-12T05:20:03.092Z,46.99
2022-12-12T05:23:06.722Z,46.96
2022-12-12T05:26:12.098Z,47.10
2022-12-12T05:29:15.208Z,47.04
2022-12-12T05:32:18.212Z,47.25
2022-12-12T05:35:21.406Z,47.05
2022-12-12T05:38:24.405Z,47.07
2022-12-12T05:41:28.749Z,47.03
2022-12-12T05:44:32.066Z,46.93
2022-12-12T05:47:35.316Z,46.86
2022-12-12T05:50:38.277Z,46.62
2022-12-12T05:53:43.124Z,46.76
2022-12-12T05:56:47.802Z,46.82
2022-12-12T05:59:50.850Z,46.62
2022-12-12T06:02:54.506Z,46.78
2022-12-12T06:05:57.518Z,46.74
2022-12-12T06:09:00.794Z,46.65
2022-12-12T06:12:05.734Z,46.73
2022-12-12T06:15:09.969Z,46.71
2022-12-12T06:18:13.313Z,46.84
2022-12-12T06:21:16.290Z,46.89
2022-12-12T06:24:19.321Z,46.80
2022-12-12T06:27:23.767Z,46.86
2022-12-12T06:30:26.825Z,46.89
2022-12-12T06:33:31.854Z,46.88
2022-12-12T06:36:35.185Z,46.88
2022-12-12T06:39:38.910Z,46.82
2022-12-12T06:42:48.161Z,46.88
2022-12-12T06:45:52.075Z,46.97
2022-12-12T06:48:57.178Z,47.13
2022-12-12T06:52:00.073Z,47.01
2022-12-12T06:55:03.014Z,46.99
2022-12-12T06:58:07.426Z,47.14
2022-12-12T07:01:12.767Z,46.97
2022-12-12T07:04:15.843Z,47.02
2022-12-12T07:07:18.811Z,47.13
2022-12-12T07:10:21.918Z,47.11
2022-12-12T07:13:26.285Z,47.17
2022-12-12T07:16:29.273Z,47.25
2022-12-12T07:19:32.216Z,47.20
2022-12-12T07:22:35.245Z,47.07
2022-12-12T07:25:38.958Z,47.25
2022-12-12T07:28:43.426Z,47.32
2022-12-12T07:31:46.479Z,47.36
2022-12-12T07:34:49.385Z,47.38
2022-12-12T07:37:52.546Z,47.62
2022-12-12T07:40:55.798Z,47.45
2022-12-12T07:44:00.448Z,47.48
2022-12-12T07:47:03.523Z,47.59
2022-12-12T07:50:07.571Z,47.53
2022-12-12T07:53:10.607Z,47.60
2022-12-12T07:56:15.475Z,47.62
2022-12-12T07:59:20.263Z,47.57
2022-12-12T08:02:23.338Z,47.59
2022-12-12T08:05:26.426Z,47.80
2022-12-12T08:08:29.463Z,47.71
2022-12-12T08:11:32.584Z,47.79
2022-12-12T08:14:38.356Z,47.66
2022-12-12T08:17:41.730Z,47.92
2022-12-12T08:20:44.787Z,47.87
2022-12-12T08:23:47.798Z,47.97
2022-12-12T08:26:52.091Z,47.94
2022-12-12T08:29:56.763Z,47.98
2022-12-12T08:33:02.380Z,48.13
2022-12-12T08:36:14.364Z,48.15
2022-12-12T08:39:17.782Z,47.97
2022-12-12T08:42:21.138Z,47.91
2022-12-12T08:45:25.586Z,47.89
2022-12-12T08:48:28.762Z,47.90
2022-12-12T08:51:31.832Z,47.88
2022-12-12T08:54:34.825Z,47.84
2022-12-12T08:57:39.161Z,47.65
2022-12-12T09:00:43.530Z,48.33
2022-12-12T09:03:48.960Z,48.00
2022-12-12T09:06:51.973Z,46.46
2022-12-12T09:09:55.409Z,46.34
2022-12-12T09:12:58.470Z,46.30
2022-12-12T09:16:03.237Z,46.30
2022-12-12T09:19:06.463Z,46.31
2022-12-12T09:22:09.538Z,46.43
2022-12-12T09:25:12.794Z,46.35
2022-12-12T09:28:18.873Z,46.43
2022-12-12T09:31:23.462Z,46.32
2022-12-12T09:34:26.499Z,46.38
2022-12-12T09:37:31.095Z,46.40
2022-12-12T09:40:39.066Z,46.55
2022-12-12T09:43:49.390Z,46.72
2022-12-12T09:46:57.753Z,46.79
2022-12-12T09:50:05.291Z,46.79
2022-12-12T09:53:13.172Z,46.94
2022-12-12T09:56:22.683Z,47.02
2022-12-12T09:59:34.257Z,47.09
2022-12-12T10:03:06.293Z,47.34
2022-12-12T10:09:48.198Z,47.01
2022-12-12T10:12:52.303Z,46.99
2022-12-12T10:15:59.375Z,47.10
2022-12-12T10:19:11.376Z,47.26
2022-12-12T10:22:24.356Z,47.39
2022-12-12T10:25:40.417Z,47.41
2022-12-12T10:28:43.459Z,47.38
2022-12-12T10:31:56.965Z,47.67
2022-12-12T10:35:18.853Z,47.51
2022-12-12T10:38:46.084Z,47.56
2022-12-12T10:41:53.975Z,47.70
2022-12-12T10:45:29.556Z,47.88
2022-12-12T10:48:32.628Z,47.83
2022-12-12T10:51:37.082Z,47.81
2022-12-12T10:54:45.938Z,47.86
2022-12-12T10:57:48.954Z,47.80
2022-12-12T11:00:52.115Z,47.85
2022-12-12T11:03:57.198Z,47.88
2022-12-12T11:07:01.890Z,47.71
2022-12-12T11:10:21.431Z,47.90
2022-12-12T11:13:24.393Z,47.83
2022-12-12T11:16:29.369Z,48.03
2022-12-12T11:19:39.480Z,47.95
2022-12-12T11:22:43.980Z,47.90
2022-12-12T11:25:47.884Z,48.04
2022-12-12T11:28:56.481Z,47.99
2022-12-12T11:32:00.771Z,47.97
2022-12-12T11:35:07.679Z,47.94
2022-12-12T11:38:21.142Z,47.94
2022-12-12T11:41:25.346Z,47.88
2022-12-12T11:44:33.459Z,47.88
2022-12-12T11:47:41.873Z,47.79
2022-12-12T11:50:46.489Z,47.72
2022-12-12T11:53:50.837Z,47.80
2022-12-12T11:56:58.763Z,47.65
2022-12-12T12:00:14.411Z,47.73
2022-12-12T12:03:28.143Z,47.58
2022-12-12T12:06:41.293Z,47.57
2022-12-12T12:09:55.559Z,47.58
2022-12-12T12:13:13.134Z,47.56
2022-12-12T12:16:28.084Z,47.61
2022-12-12T12:19:38.234Z,47.43
2022-12-12T12:22:55.155Z,47.72
2022-12-12T12:26:06.269Z,47.81
2022-12-12T12:29:22.890Z,47.71
2022-12-12T12:32:35.473Z,47.75
2022-12-12T12:35:48.459Z,47.84
2022-12-12T12:38:58.129Z,47.88
2022-12-12T12:42:19.676Z,47.66
2022-12-12T12:45:29.401Z,47.74
2022-12-12T12:48:38.487Z,47.76
2022-12-12T12:51:50.207Z,47.79
2022-12-12T12:54:58.118Z,47.77
2022-12-12T12:58:07.003Z,47.83
2022-12-12T13:01:17.628Z,47.87
2022-12-12T13:04:25.461Z,47.89
2022-12-12T13:07:40.775Z,47.85
2022-12-12T13:10:48.574Z,48.00
2022-12-12T13:13:56.086Z,48.02
2022-12-12T13:17:06.436Z,48.03
2022-12-12T13:20:17.152Z,47.95
2022-12-12T13:23:37.310Z,47.76
2022-12-12T13:26:45.967Z,47.83
2022-12-12T13:29:54.843Z,47.72
2022-12-12T13:33:13.681Z,47.69
2022-12-12T13:36:27.573Z,47.54
2022-12-12T13:39:34.071Z,47.56
2022-12-12T13:42:55.364Z,47.67
2022-12-12T13:45:59.986Z,47.54
2022-12-12T13:49:25.653Z,47.51
2022-12-12T13:52:31.471Z,47.55
2022-12-12T13:55:34.607Z,47.50
2022-12-12T13:58:37.549Z,47.54
2022-12-12T14:01:42.038Z,47.44
2022-12-12T14:04:45.434Z,47.41
2022-12-12T14:07:50.558Z,47.44
2022-12-12T14:11:00.722Z,47.44
2022-12-12T14:14:21.603Z,47.58
2022-12-12T14:17:29.120Z,47.61
2022-12-12T14:20:34.861Z,47.58
2022-12-12T14:23:42.121Z,47.80
2022-12-12T14:26:50.039Z,47.98
2022-12-12T14:29:53.033Z,47.80
2022-12-12T14:33:07.610Z,47.74
2022-12-12T14:36:30.346Z,47.64
2022-12-12T14:39:57.545Z,47.66
2022-12-12T14:43:20.213Z,47.79
2022-12-12T14:46:25.396Z,47.85
2022-12-12T14:49:29.747Z,47.79
2022-12-12T14:52:32.706Z,47.81
2022-12-12T14:55:35.726Z,47.80
2022-12-12T14:58:42.218Z,47.82
2022-12-12T15:01:47.775Z,48.16
2022-12-12T15:05:00.956Z,47.92
2022-12-12T15:08:19.773Z,47.94
2022-12-12T15:11:26.111Z,47.85
2022-12-12T15:14:29.211Z,47.95
2022-12-12T15:17:34.242Z,47.85
2022-12-12T15:20:39.018Z,47.85
2022-12-12T15:23:42.924Z,47.64
2022-12-12T15:26:46.647Z,47.56
2022-12-12T15:29:49.943Z,47.64
2022-12-12T15:32:52.950Z,47.53
2022-12-12T15:36:02.740Z,47.43
2022-12-12T15:39:15.620Z,47.52
2022-12-12T15:42:19.323Z,47.64
2022-12-12T15:45:33.462Z,47.33
2022-12-12T15:48:36.446Z,47.38
2022-12-12T15:51:40.780Z,47.39
2022-12-12T15:54:48.766Z,47.38
2022-12-12T15:57:53.641Z,47.50
2022-12-12T16:01:05.647Z,47.59
2022-12-12T16:04:25.242Z,47.54
2022-12-12T16:07:36.392Z,47.46
2022-12-12T16:10:53.022Z,47.58
2022-12-12T16:13:56.000Z,47.49
2022-12-12T16:17:02.813Z,47.71
2022-12-12T16:20:08.207Z,47.65
2022-12-12T16:23:23.460Z,47.71
2022-12-12T16:26:26.858Z,47.76
2022-12-12T16:29:29.848Z,47.71
2022-12-12T16:32:34.742Z,47.85
2022-12-12T16:35:37.671Z,47.82
2022-12-12T16:38:43.287Z,47.83
2022-12-12T16:41:46.488Z,47.92
2022-12-12T16:44:49.669Z,47.84
2022-12-12T16:47:52.571Z,47.84
2022-12-12T16:50:59.435Z,48.07
2022-12-12T16:54:03.774Z,48.13
2022-12-12T16:57:06.802Z,47.97
2022-12-12T17:00:12.032Z,48.03
2022-12-12T17:03:17.103Z,47.94
2022-12-12T17:06:20.059Z,48.03
2022-12-12T17:09:29.865Z,47.93
2022-12-12T17:12:33.145Z,47.88
2022-12-12T17:15:36.280Z,48.01
2022-12-12T17:18:39.218Z,47.85
2022-12-12T17:21:42.203Z,47.78
2022-12-12T17:24:46.528Z,47.56
2022-12-12T17:27:49.546Z,47.70
2022-12-12T17:30:52.519Z,47.54
2022-12-12T17:33:55.671Z,47.71
2022-12-12T17:36:58.694Z,47.58
2022-12-12T17:40:03.487Z,47.75
2022-12-12T17:43:06.537Z,47.65
2022-12-12T17:46:14.637Z,47.46
2022-12-12T17:49:17.930Z,47.59
2022-12-12T17:52:21.060Z,47.57
2022-12-12T17:55:53.397Z,47.59
2022-12-12T17:58:49.453Z,47.61
2022-12-12T18:01:53.747Z,47.49
2022-12-12T18:04:56.779Z,47.44
2022-12-12T18:07:59.853Z,47.73
2022-12-12T18:11:07.537Z,47.80
2022-12-12T18:14:15.344Z,47.70
2022-12-12T18:17:18.385Z,47.67
2022-12-12T18:20:22.782Z,47.77
2022-12-12T18:23:27.375Z,47.87
2022-12-12T18:26:31.694Z,47.85
2022-12-12T18:29:34.741Z,47.82
2022-12-12T18:32:37.721Z,47.91
2022-12-12T18:35:40.725Z,48.09
2022-12-12T18:38:47.582Z,48.21
2022-12-12T18:41:53.033Z,48.09
2022-12-12T18:44:56.230Z,48.05
2022-12-12T18:47:59.727Z,48.14
2022-12-12T18:51:06.347Z,48.17
2022-12-12T18:54:14.281Z,48.25
2022-12-12T18:57:19.869Z,48.18
2022-12-12T19:00:22.899Z,48.02
2022-12-12T19:03:25.825Z,47.88
2022-12-12T19:06:33.778Z,48.04
2022-12-12T19:09:36.938Z,47.95
2022-12-12T19:12:41.379Z,47.85
2022-12-12T19:15:44.351Z,47.79
2022-12-12T19:18:47.969Z,48.00
2022-12-12T19:21:52.301Z,47.94
2022-12-12T19:24:55.336Z,47.74
2022-12-12T19:28:00.850Z,47.79
2022-12-12T19:31:08.476Z,47.88
2022-12-12T19:34:13.205Z,48.02
2022-12-12T19:37:16.178Z,47.95
2022-12-12T19:40:19.610Z,47.93
2022-12-12T19:43:23.977Z,48.03
2022-12-12T19:46:29.905Z,47.92
2022-12-12T19:49:33.201Z,47.85
2022-12-12T19:52:36.217Z,47.94
2022-12-12T19:55:39.772Z,47.86
2022-12-12T19:58:44.656Z,47.87
2022-12-12T20:01:49.422Z,47.99
2022-12-12T20:04:52.450Z,48.05
2022-12-12T20:07:55.457Z,48.25
2022-12-12T20:11:04.227Z,48.26
2022-12-12T20:14:14.422Z,48.53
2022-12-12T20:17:17.511Z,48.47
2022-12-12T20:20:20.491Z,48.57
2022-12-12T20:23:23.566Z,48.59
2022-12-12T20:26:28.990Z,48.53
2022-12-12T20:29:33.847Z,48.44
2022-12-12T20:32:36.913Z,48.61
2022-12-12T20:35:41.833Z,48.42
2022-12-12T20:38:45.732Z,48.35
2022-12-12T20:41:49.706Z,48.54
2022-12-12T20:44:54.166Z,48.53
2022-12-12T20:47:57.194Z,48.52
2022-12-12T20:51:01.050Z,48.58
2022-12-12T20:54:05.999Z,48.38
2022-12-12T20:57:08.985Z,48.27
2022-12-12T21:00:14.866Z,48.26
2022-12-12T21:03:18.158Z,48.16
2022-12-12T21:06:23.338Z,48.52
2022-12-12T21:09:26.979Z,48.19
2022-12-12T21:12:30.191Z,48.12
2022-12-12T21:15:34.601Z,48.29
2022-12-12T21:18:38.419Z,48.20
2022-12-12T21:21:42.600Z,48.25
2022-12-12T21:24:45.869Z,48.15
2022-12-12T21:27:48.847Z,48.28
2022-12-12T21:30:53.332Z,48.30
2022-12-12T21:33:57.098Z,48.16
2022-12-12T21:37:00.510Z,48.16
2022-12-12T21:40:03.823Z,48.19
2022-12-12T21:43:06.779Z,48.36
2022-12-12T21:46:14.627Z,48.29
2022-12-12T21:49:26.625Z,48.41
2022-12-12T21:52:29.859Z,48.33
2022-12-12T21:55:32.906Z,48.32
2022-12-12T21:58:37.729Z,48.40
2022-12-12T22:01:42.324Z,48.46
2022-12-12T22:04:45.447Z,48.54
2022-12-12T22:07:48.636Z,48.60
2022-12-12T22:10:54.481Z,48.65
2022-12-12T22:13:57.698Z,48.67
2022-12-12T22:17:02.883Z,48.63
2022-12-12T22:20:06.408Z,48.63
2022-12-12T22:23:09.602Z,48.66
2022-12-12T22:26:16.997Z,48.50
2022-12-12T22:29:21.254Z,48.78
2022-12-12T22:32:25.671Z,48.59
2022-12-12T22:35:28.718Z,48.67
2022-12-12T22:38:37.747Z,48.72
2022-12-12T22:41:41.249Z,48.76
2022-12-12T22:44:44.726Z,48.75
2022-12-12T22:47:49.151Z,48.65
2022-12-12T22:50:52.158Z,48.60
2022-12-12T22:53:56.574Z,48.52
2022-12-12T22:56:59.683Z,48.49
2022-12-12T23:00:02.849Z,48.47
2022-12-12T23:03:07.410Z,48.60
2022-12-12T23:06:13.265Z,48.51
2022-12-12T23:09:18.907Z,48.16
2022-12-12T23:12:24.679Z,47.31
2022-12-12T23:15:27.671Z,46.17
2022-12-12T23:18:32.903Z,45.03
2022-12-12T23:21:37.463Z,44.64
2022-12-12T23:24:40.448Z,44.62
2022-12-12T23:27:43.433Z,44.52
2022-12-12T23:30:46.419Z,44.54
2022-12-12T23:33:54.495Z,44.73
2022-12-12T23:36:58.213Z,44.91
2022-12-12T23:40:02.223Z,44.90
2022-12-12T23:43:05.182Z,44.81
2022-12-12T23:46:27.935Z,44.94
2022-12-12T23:49:32.494Z,45.00
2022-12-12T23:52:35.516Z,45.27
2022-12-12T23:55:38.625Z,45.32
2022-12-12T23:58:41.634Z,45.60
